createdAt,value
2018-06-04T00:00:00.350Z,45.77
2018-06-04T00:02:28.723Z,41.47
2018-06-04T00:04:57.131Z,40.67
2018-06-04T00:07:25.511Z,40.20
2018-06-04T00:09:54.082Z,44.20
2018-06-04T00:12:22.471Z,35.83
2018-06-04T00:14:50.965Z,40.57
2018-06-04T00:17:19.343Z,45.33
2018-06-04T00:19:47.748Z,44.60
2018-06-04T00:22:16.140Z,47.00
2018-06-04T00:24:44.544Z,42.27
2018-06-04T00:27:12.923Z,42.00
2018-06-04T00:29:41.322Z,45.83
2018-06-04T00:32:10.939Z,40.00
2018-06-04T00:34:39.343Z,40.40
2018-06-04T00:37:07.727Z,46.80
2018-06-04T00:39:36.137Z,47.97
2018-06-04T00:42:04.536Z,46.97
2018-06-04T00:44:32.941Z,44.40
2018-06-04T00:47:01.319Z,44.37
2018-06-04T00:49:29.749Z,46.20
2018-06-04T00:51:58.140Z,43.50
2018-06-04T00:54:26.527Z,46.00
2018-06-04T00:56:54.922Z,48.33
2018-06-04T00:59:23.331Z,43.90
2018-06-04T01:01:51.726Z,44.20
2018-06-04T01:04:29.320Z,46.50
2018-06-04T01:07:04.231Z,46.63
2018-06-04T01:09:32.608Z,46.70
2018-06-04T01:12:06.110Z,44.47
2018-06-04T01:14:34.487Z,42.50
2018-06-04T01:17:02.887Z,44.50
2018-06-04T01:19:31.268Z,46.27
2018-06-04T01:21:59.676Z,43.40
2018-06-04T01:24:28.058Z,48.90
2018-06-04T01:26:56.467Z,46.13
2018-06-04T01:29:24.854Z,39.80
2018-06-04T01:31:53.279Z,50.50
2018-06-04T01:34:21.653Z,47.33
2018-06-04T01:36:50.060Z,45.37
2018-06-04T01:39:18.438Z,46.27
2018-06-04T01:41:46.834Z,47.77
2018-06-04T01:44:15.211Z,46.63
2018-06-04T01:46:43.612Z,45.43
2018-06-04T01:49:11.992Z,44.67
2018-06-04T01:51:40.395Z,44.03
2018-06-04T01:54:08.778Z,47.70
2018-06-04T01:56:37.182Z,46.27
2018-06-04T01:59:05.583Z,49.77
2018-06-04T02:01:33.982Z,44.10
2018-06-04T02:04:02.366Z,48.00
2018-06-04T02:06:30.767Z,46.23
2018-06-04T02:08:59.147Z,49.30
2018-06-04T02:11:27.550Z,45.80
2018-06-04T02:13:55.918Z,48.73
2018-06-04T02:16:24.315Z,47.07
2018-06-04T02:18:52.695Z,47.47
2018-06-04T02:21:21.123Z,48.30
2018-06-04T02:23:49.517Z,47.60
2018-06-04T02:26:17.895Z,48.37
2018-06-04T02:28:46.299Z,45.83
2018-06-04T02:31:14.686Z,47.60
2018-06-04T02:33:43.087Z,43.83
2018-06-04T02:36:11.470Z,43.00
2018-06-04T02:38:39.880Z,46.77
2018-06-04T02:41:08.258Z,49.73
2018-06-04T02:43:36.661Z,44.60
2018-06-04T02:46:05.291Z,43.27
2018-06-04T02:48:33.691Z,46.13
2018-06-04T02:51:02.067Z,46.57
2018-06-04T02:53:30.467Z,46.20
2018-06-04T02:55:58.848Z,48.07
2018-06-04T02:58:27.270Z,48.37
2018-06-04T03:00:55.646Z,45.80
2018-06-04T03:03:24.052Z,46.60
2018-06-04T03:05:52.430Z,47.80
2018-06-04T03:08:20.835Z,44.90
2018-06-04T03:10:49.220Z,44.47
2018-06-04T03:13:17.618Z,48.30
2018-06-04T03:15:45.996Z,49.00
2018-06-04T03:18:14.399Z,50.10
2018-06-04T03:20:42.775Z,48.90
2018-06-04T03:23:11.175Z,48.63
2018-06-04T03:25:39.555Z,48.70
2018-06-04T03:28:07.958Z,43.97
2018-06-04T03:30:36.340Z,45.87
2018-06-04T03:33:04.750Z,45.07
2018-06-04T03:35:33.126Z,44.10
2018-06-04T03:38:01.515Z,43.23
2018-06-04T03:40:29.883Z,45.00
2018-06-04T03:42:58.274Z,44.47
2018-06-04T03:45:26.648Z,41.40
2018-06-04T03:47:55.060Z,41.07
2018-06-04T03:50:23.439Z,44.60
2018-06-04T03:52:51.819Z,42.77
2018-06-04T03:55:20.224Z,39.60
2018-06-04T03:57:48.627Z,39.63
2018-06-04T04:00:17.026Z,39.30
2018-06-04T04:02:45.403Z,39.37
2018-06-04T04:05:13.807Z,40.53
2018-06-04T04:07:42.179Z,37.20
2018-06-04T04:10:10.581Z,36.23
2018-06-04T04:12:38.963Z,37.47
2018-06-04T04:15:07.367Z,36.20
2018-06-04T04:17:35.763Z,37.10
2018-06-04T04:20:04.195Z,35.70
2018-06-04T04:22:32.571Z,35.77
2018-06-04T04:25:00.962Z,35.30
2018-06-04T04:27:29.394Z,32.83
2018-06-04T04:29:57.786Z,34.20
2018-06-04T04:32:26.275Z,32.97
2018-06-04T04:34:54.670Z,33.20
2018-06-04T04:37:23.047Z,31.27
2018-06-04T04:39:51.451Z,32.10
2018-06-04T04:42:19.826Z,31.03
2018-06-04T04:44:48.232Z,28.80
2018-06-04T04:47:16.607Z,31.00
2018-06-04T04:49:45.008Z,30.20
2018-06-04T04:52:13.385Z,29.50
2018-06-04T04:54:41.787Z,30.27
2018-06-04T04:57:10.171Z,29.30
2018-06-04T04:59:38.614Z,29.33
2018-06-04T05:02:07.004Z,27.50
2018-06-04T05:04:35.402Z,29.87
2018-06-04T05:07:03.779Z,29.23
2018-06-04T05:09:32.186Z,27.10
2018-06-04T05:12:00.567Z,29.43
2018-06-04T05:14:28.976Z,26.20
2018-06-04T05:16:57.358Z,25.70
2018-06-04T05:19:25.751Z,26.27
2018-06-04T05:21:54.151Z,27.37
2018-06-04T05:24:22.527Z,25.60
2018-06-04T05:26:50.927Z,24.80
2018-06-04T05:29:19.298Z,26.33
2018-06-04T05:31:47.708Z,22.93
2018-06-04T05:34:16.082Z,25.07
2018-06-04T05:36:44.495Z,24.23
2018-06-04T05:39:13.333Z,22.83
2018-06-04T05:41:41.732Z,23.17
2018-06-04T05:44:10.109Z,21.87
2018-06-04T05:46:38.551Z,20.70
2018-06-04T05:49:06.923Z,21.40
2018-06-04T05:51:35.322Z,18.30
2018-06-04T05:54:03.695Z,18.57
2018-06-04T05:56:32.103Z,18.47
2018-06-04T05:59:00.496Z,17.67
2018-06-04T06:01:28.904Z,18.17
2018-06-04T06:03:57.283Z,18.50
2018-06-04T06:06:25.774Z,18.30
2018-06-04T06:08:54.166Z,18.20
2018-06-04T06:11:22.564Z,19.40
2018-06-04T06:13:50.943Z,18.73
2018-06-04T06:16:19.339Z,16.23
2018-06-04T06:18:47.715Z,18.03
2018-06-04T06:21:16.111Z,18.57
2018-06-04T06:23:44.506Z,19.50
2018-06-04T06:26:12.907Z,18.90
2018-06-04T06:28:41.291Z,17.10
2018-06-04T06:31:09.691Z,17.80
2018-06-04T06:33:38.066Z,17.53
2018-06-04T06:36:06.462Z,17.90
2018-06-04T06:38:34.843Z,17.27
2018-06-04T06:41:03.244Z,19.03
2018-06-04T06:43:31.619Z,17.90
2018-06-04T06:46:00.014Z,18.97
2018-06-04T06:48:28.386Z,16.60
2018-06-04T06:50:56.787Z,17.73
2018-06-04T06:53:25.185Z,17.20
2018-06-04T06:55:53.667Z,17.47
2018-06-04T06:58:22.087Z,18.60
2018-06-04T07:00:50.608Z,17.93
2018-06-04T07:03:19.021Z,18.73
2018-06-04T07:05:47.486Z,17.27
2018-06-04T07:08:15.891Z,18.00
2018-06-04T07:10:44.266Z,18.30
2018-06-04T07:13:12.670Z,17.80
2018-06-04T07:15:41.055Z,18.63
2018-06-04T07:18:09.464Z,17.73
2018-06-04T07:20:37.843Z,16.37
2018-06-04T07:23:06.419Z,17.50
2018-06-04T07:25:34.845Z,17.53
2018-06-04T07:28:03.247Z,17.77
2018-06-04T07:30:31.631Z,15.40
2018-06-04T07:33:00.195Z,16.93
2018-06-04T07:35:28.582Z,15.60
2018-06-04T07:37:56.978Z,15.47
2018-06-04T07:40:25.356Z,15.93
2018-06-04T07:42:53.754Z,17.10
2018-06-04T07:45:22.134Z,15.30
2018-06-04T07:47:50.546Z,14.97
2018-06-04T07:50:18.935Z,16.27
2018-06-04T07:52:47.339Z,15.73
2018-06-04T07:55:15.720Z,15.33
2018-06-04T07:57:44.144Z,15.13
2018-06-04T08:00:12.515Z,14.30
2018-06-04T08:02:40.957Z,15.00
2018-06-04T08:05:09.316Z,13.87
2018-06-04T08:07:37.723Z,14.60
2018-06-04T08:10:06.343Z,14.70
2018-06-04T08:12:34.739Z,17.00
2018-06-04T08:15:03.158Z,15.60
2018-06-04T08:17:31.527Z,17.00
2018-06-04T08:19:59.936Z,16.40
2018-06-04T08:22:28.321Z,16.77
2018-06-04T08:24:56.727Z,16.17
2018-06-04T08:27:25.103Z,15.57
2018-06-04T08:29:53.512Z,16.50
2018-06-04T08:32:21.898Z,15.87
2018-06-04T08:34:50.343Z,15.50
2018-06-04T08:37:18.720Z,16.27
2018-06-04T08:39:47.119Z,15.37
2018-06-04T08:42:15.528Z,14.87
2018-06-04T08:44:43.924Z,17.40
2018-06-04T08:47:12.303Z,16.30
2018-06-04T08:49:40.698Z,17.30
2018-06-04T08:52:09.175Z,15.10
2018-06-04T08:54:37.568Z,15.87
2018-06-04T08:57:05.949Z,15.60
2018-06-04T08:59:34.372Z,16.63
2018-06-04T09:02:02.750Z,15.97
2018-06-04T09:04:31.155Z,17.50
2018-06-04T09:06:59.531Z,15.87
2018-06-04T09:09:27.946Z,16.07
2018-06-04T09:11:56.319Z,17.33
2018-06-04T09:14:24.727Z,17.50
2018-06-04T09:16:53.195Z,18.33
2018-06-04T09:19:21.594Z,17.87
2018-06-04T09:21:49.980Z,16.50
2018-06-04T09:24:18.379Z,16.20
2018-06-04T09:26:46.765Z,15.83
2018-06-04T09:29:15.162Z,15.00
2018-06-04T09:31:43.543Z,15.93
2018-06-04T09:34:11.963Z,17.47
2018-06-04T09:36:40.343Z,15.30
2018-06-04T09:39:08.758Z,16.47
2018-06-04T09:41:37.159Z,18.43
2018-06-04T09:44:05.540Z,18.00
2018-06-04T09:46:33.935Z,18.80
2018-06-04T09:49:02.317Z,17.77
2018-06-04T09:51:30.719Z,18.40
2018-06-04T09:53:59.114Z,17.23
2018-06-04T09:56:27.518Z,16.67
2018-06-04T09:58:55.916Z,15.10
2018-06-04T10:01:24.316Z,14.10
2018-06-04T10:03:52.705Z,14.77
2018-06-04T10:06:21.103Z,15.70
2018-06-04T10:08:49.482Z,13.57
2018-06-04T10:11:18.143Z,13.83
2018-06-04T10:13:46.519Z,13.77
2018-06-04T10:16:14.921Z,15.43
2018-06-04T10:18:43.299Z,13.70
2018-06-04T10:21:11.809Z,12.90
2018-06-04T10:23:40.349Z,11.80
2018-06-04T10:26:08.760Z,11.53
2018-06-04T10:28:37.253Z,10.80
2018-06-04T10:31:05.648Z,11.83
2018-06-04T10:33:34.036Z,12.60
2018-06-04T10:36:02.439Z,11.20
2018-06-04T10:38:30.819Z,12.00
2018-06-04T10:40:59.223Z,11.70
2018-06-04T10:43:27.609Z,12.60
2018-06-04T10:45:56.005Z,11.63
2018-06-04T10:48:24.378Z,12.93
2018-06-04T10:50:52.775Z,11.30
2018-06-04T10:53:21.147Z,11.17
2018-06-04T10:55:49.546Z,11.90
2018-06-04T10:58:17.948Z,11.07
2018-06-04T11:00:46.372Z,10.43
2018-06-04T11:03:14.760Z,11.30
2018-06-04T11:05:43.134Z,10.30
2018-06-04T11:08:11.534Z,11.63
2018-06-04T11:10:39.895Z,8.33
2018-06-04T11:13:08.291Z,10.33
2018-06-04T11:15:36.660Z,9.97
2018-06-04T11:18:05.059Z,10.20
2018-06-04T11:20:33.434Z,10.20
2018-06-04T11:23:01.839Z,10.30
2018-06-04T11:25:30.203Z,8.80
2018-06-04T11:27:58.642Z,8.77
2018-06-04T11:30:27.044Z,9.17
2018-06-04T11:32:55.443Z,9.30
2018-06-04T11:35:23.837Z,9.80
2018-06-04T11:37:52.258Z,9.87
2018-06-04T11:40:20.646Z,9.97
2018-06-04T11:42:49.046Z,9.03
2018-06-04T11:45:17.426Z,10.20
2018-06-04T11:47:45.834Z,10.90
2018-06-04T11:50:14.296Z,10.03
2018-06-04T11:52:42.711Z,9.13
2018-06-04T11:55:11.083Z,8.67
2018-06-04T11:57:39.512Z,9.37
2018-06-04T12:00:07.911Z,8.63
2018-06-04T12:02:36.278Z,9.57
2018-06-04T12:05:04.728Z,9.20
2018-06-04T12:07:33.124Z,9.03
2018-06-04T12:10:01.527Z,9.07
2018-06-04T12:12:29.983Z,8.60
2018-06-04T12:14:58.378Z,7.70
2018-06-04T12:17:26.797Z,9.63
2018-06-04T12:19:55.182Z,10.23
2018-06-04T12:22:23.574Z,9.43
2018-06-04T12:24:51.974Z,9.87
2018-06-04T12:27:20.344Z,9.50
2018-06-04T12:29:48.742Z,8.33
2018-06-04T12:32:17.106Z,9.53
2018-06-04T12:34:45.498Z,8.47
2018-06-04T12:37:13.871Z,7.90
2018-06-04T12:39:42.270Z,8.93
2018-06-04T12:42:10.750Z,8.20
2018-06-04T12:44:40.762Z,9.40
2018-06-04T12:47:09.135Z,9.23
2018-06-04T12:49:37.902Z,9.77
2018-06-04T12:52:06.268Z,8.67
2018-06-04T12:54:34.672Z,8.97
2018-06-04T12:57:03.046Z,9.77
2018-06-04T12:59:31.494Z,9.83
2018-06-04T13:01:59.901Z,8.77
2018-06-04T13:04:28.308Z,10.00
2018-06-04T13:06:56.795Z,10.60
2018-06-04T13:09:25.190Z,11.80
2018-06-04T13:11:53.655Z,11.20
2018-06-04T13:14:22.050Z,10.37
2018-06-04T13:16:50.436Z,10.63
2018-06-04T13:19:18.840Z,11.60
2018-06-04T13:21:47.238Z,11.90
2018-06-04T13:24:15.620Z,12.20
2018-06-04T13:26:44.077Z,11.87
2018-06-04T13:29:12.465Z,13.57
2018-06-04T13:31:40.864Z,13.50
2018-06-04T13:34:09.271Z,14.03
2018-06-04T13:36:37.669Z,13.53
2018-06-04T13:39:08.590Z,12.27
2018-06-04T13:41:37.244Z,12.10
2018-06-04T13:44:05.635Z,13.33
2018-06-04T13:46:34.030Z,13.80
2018-06-04T13:49:02.404Z,14.73
2018-06-04T13:51:30.806Z,13.80
2018-06-04T13:53:59.182Z,13.63
2018-06-04T13:56:27.578Z,12.60
2018-06-04T13:58:55.973Z,12.77
2018-06-04T14:01:24.370Z,12.70
2018-06-04T14:03:52.747Z,13.27
2018-06-04T14:06:21.148Z,12.47
2018-06-04T14:08:49.526Z,12.17
2018-06-04T14:11:17.947Z,12.50
2018-06-04T14:13:46.325Z,11.50
2018-06-04T14:16:14.726Z,10.80
2018-06-04T14:18:43.098Z,12.53
2018-06-04T14:21:11.578Z,12.30
2018-06-04T14:23:39.965Z,13.63
2018-06-04T14:26:08.360Z,12.20
2018-06-04T14:28:36.738Z,11.80
2018-06-04T14:31:05.154Z,12.03
2018-06-04T14:33:33.529Z,11.90
2018-06-04T14:36:01.963Z,12.03
2018-06-04T14:38:30.346Z,11.63
2018-06-04T14:40:58.756Z,11.60
2018-06-04T14:43:27.138Z,12.00
2018-06-04T14:45:55.566Z,11.47
2018-06-04T14:48:23.938Z,11.60
2018-06-04T14:50:52.330Z,11.90
2018-06-04T14:53:20.730Z,11.50
2018-06-04T14:55:49.102Z,11.40
2018-06-04T14:58:17.522Z,12.27
2018-06-04T15:00:45.906Z,9.73
2018-06-04T15:03:14.316Z,11.23
2018-06-04T15:05:42.694Z,11.73
2018-06-04T15:08:11.102Z,10.30
2018-06-04T15:10:39.479Z,10.33
2018-06-04T15:13:07.891Z,11.13
2018-06-04T15:15:36.433Z,10.43
2018-06-04T15:18:05.066Z,11.10
2018-06-04T15:20:33.458Z,10.00
2018-06-04T15:23:01.865Z,11.70
2018-06-04T15:25:30.245Z,10.80
2018-06-04T15:27:58.694Z,9.20
2018-06-04T15:30:27.082Z,10.63
2018-06-04T15:32:55.483Z,10.00
2018-06-04T15:35:23.882Z,12.10
2018-06-04T15:37:52.426Z,12.00
2018-06-04T15:40:20.794Z,11.60
2018-06-04T15:42:49.199Z,10.07
2018-06-04T15:45:17.585Z,11.37
2018-06-04T15:47:46.052Z,12.43
2018-06-04T15:50:14.536Z,12.37
2018-06-04T15:52:42.954Z,11.07
2018-06-04T15:55:11.334Z,10.90
2018-06-04T15:57:39.742Z,10.40
2018-06-04T16:00:08.164Z,11.37
2018-06-04T16:02:36.587Z,10.10
2018-06-04T16:05:04.990Z,10.77
2018-06-04T16:07:33.414Z,11.00
2018-06-04T16:10:01.849Z,10.90
2018-06-04T16:12:30.282Z,11.07
2018-06-04T16:14:58.683Z,9.97
2018-06-04T16:17:27.074Z,11.37
2018-06-04T16:19:55.474Z,11.00
2018-06-04T16:22:23.894Z,10.90
2018-06-04T16:24:52.307Z,10.70
2018-06-04T16:27:20.759Z,11.00
2018-06-04T16:29:49.157Z,11.80
2018-06-04T16:32:17.546Z,10.73
2018-06-04T16:34:45.959Z,11.07
2018-06-04T16:37:14.388Z,11.30
2018-06-04T16:39:42.770Z,12.03
2018-06-04T16:42:11.762Z,12.70
2018-06-04T16:44:40.217Z,12.20
2018-06-04T16:47:08.607Z,12.10
2018-06-04T16:49:37.051Z,11.50
2018-06-04T16:52:05.445Z,13.20
2018-06-04T16:54:33.848Z,12.27
2018-06-04T16:57:02.229Z,12.03
2018-06-04T16:59:30.744Z,12.10
2018-06-04T17:01:59.094Z,13.40
2018-06-04T17:04:27.489Z,12.40
2018-06-04T17:06:55.894Z,13.07
2018-06-04T17:09:24.333Z,12.27
2018-06-04T17:11:52.776Z,11.27
2018-06-04T17:14:21.179Z,12.00
2018-06-04T17:16:49.550Z,13.07
2018-06-04T17:19:17.954Z,12.97
2018-06-04T17:21:46.398Z,11.87
2018-06-04T17:24:14.806Z,12.87
2018-06-04T17:26:43.187Z,12.20
2018-06-04T17:29:11.636Z,11.10
2018-06-04T17:31:40.014Z,12.90
2018-06-04T17:34:08.426Z,10.53
2018-06-04T17:36:36.802Z,11.83
2018-06-04T17:39:07.701Z,11.93
2018-06-04T17:41:36.983Z,12.10
2018-06-04T17:44:05.426Z,11.70
2018-06-04T17:46:33.828Z,11.83
2018-06-04T17:49:02.194Z,10.60
2018-06-04T17:51:30.600Z,12.57
2018-06-04T17:53:58.983Z,10.93
2018-06-04T17:56:27.402Z,13.23
2018-06-04T17:58:55.797Z,13.33
2018-06-04T18:01:24.204Z,13.30
2018-06-04T18:03:52.579Z,13.70
2018-06-04T18:06:20.979Z,14.60
2018-06-04T18:08:49.362Z,13.87
2018-06-04T18:11:17.774Z,14.77
2018-06-04T18:13:46.154Z,14.40
2018-06-04T18:16:14.554Z,15.33
2018-06-04T18:18:42.935Z,15.53
2018-06-04T18:21:11.335Z,15.30
2018-06-04T18:23:39.711Z,14.33
2018-06-04T18:26:08.114Z,14.43
2018-06-04T18:28:36.521Z,15.33
2018-06-04T18:31:04.914Z,16.07
2018-06-04T18:33:33.447Z,16.23
2018-06-04T18:36:01.855Z,16.80
2018-06-04T18:38:30.230Z,16.80
2018-06-04T18:40:58.628Z,15.67
2018-06-04T18:43:27.011Z,16.50
2018-06-04T18:45:55.411Z,16.00
2018-06-04T18:48:23.789Z,17.50
2018-06-04T18:50:52.186Z,17.73
2018-06-04T18:53:20.558Z,17.07
2018-06-04T18:55:48.939Z,14.80
2018-06-04T18:58:17.390Z,16.40
2018-06-04T19:00:45.767Z,16.60
2018-06-04T19:03:14.172Z,17.23
2018-06-04T19:05:42.546Z,19.00
2018-06-04T19:08:10.944Z,15.77
2018-06-04T19:10:39.364Z,16.47
2018-06-04T19:13:07.847Z,15.10
2018-06-04T19:15:36.224Z,15.53
2018-06-04T19:18:04.626Z,18.33
2018-06-04T19:20:33.010Z,18.20
2018-06-04T19:23:01.406Z,18.53
2018-06-04T19:25:29.795Z,19.07
2018-06-04T19:27:58.194Z,19.33
2018-06-04T19:30:26.580Z,19.90
2018-06-04T19:32:54.997Z,17.70
2018-06-04T19:35:23.380Z,19.63
2018-06-04T19:37:51.773Z,19.73
2018-06-04T19:40:20.150Z,17.10
2018-06-04T19:42:48.548Z,15.53
2018-06-04T19:45:16.933Z,16.00
2018-06-04T19:47:45.331Z,18.93
2018-06-04T19:50:13.710Z,17.63
2018-06-04T19:52:42.110Z,19.20
2018-06-04T19:55:10.481Z,18.50
2018-06-04T19:57:38.879Z,19.10
2018-06-04T20:00:07.334Z,17.40
2018-06-04T20:02:35.798Z,16.30
2018-06-04T20:05:04.182Z,18.07
2018-06-04T20:07:32.582Z,17.43
2018-06-04T20:10:00.958Z,19.23
2018-06-04T20:12:29.374Z,18.87
2018-06-04T20:14:57.845Z,19.60
2018-06-04T20:17:26.245Z,17.33
2018-06-04T20:19:54.646Z,20.87
2018-06-04T20:22:23.114Z,20.30
2018-06-04T20:24:51.514Z,18.67
2018-06-04T20:27:19.890Z,20.00
2018-06-04T20:29:48.294Z,19.20
2018-06-04T20:32:16.670Z,20.90
2018-06-04T20:34:45.071Z,19.67
2018-06-04T20:37:13.453Z,20.80
2018-06-04T20:39:41.882Z,21.67
2018-06-04T20:42:10.258Z,21.13
2018-06-04T20:44:38.666Z,21.67
2018-06-04T20:47:07.055Z,21.60
2018-06-04T20:49:35.458Z,22.37
2018-06-04T20:52:03.832Z,22.57
2018-06-04T20:54:32.226Z,24.70
2018-06-04T20:57:00.618Z,21.80
2018-06-04T20:59:29.038Z,22.23
2018-06-04T21:01:57.470Z,22.97
2018-06-04T21:04:25.894Z,22.67
2018-06-04T21:06:54.277Z,22.60
2018-06-04T21:09:22.665Z,23.53
2018-06-04T21:11:51.034Z,25.03
2018-06-04T21:14:19.434Z,26.10
2018-06-04T21:16:47.806Z,27.43
2018-06-04T21:19:16.203Z,26.87
2018-06-04T21:21:44.578Z,27.87
2018-06-04T21:24:12.977Z,29.40
2018-06-04T21:26:41.357Z,25.20
2018-06-04T21:29:09.764Z,26.00
2018-06-04T21:31:38.131Z,25.20
2018-06-04T21:34:06.551Z,27.60
2018-06-04T21:36:34.923Z,26.07
2018-06-04T21:39:03.334Z,23.70
2018-06-04T21:41:31.734Z,23.63
2018-06-04T21:44:00.106Z,25.17
2018-06-04T21:46:28.498Z,22.20
2018-06-04T21:48:56.870Z,24.40
2018-06-04T21:51:25.263Z,24.90
2018-06-04T21:53:53.638Z,25.87
2018-06-04T21:56:22.034Z,24.50
2018-06-04T21:58:50.430Z,26.33
2018-06-04T22:01:18.826Z,26.07
2018-06-04T22:03:47.202Z,25.63
2018-06-04T22:06:15.598Z,25.03
2018-06-04T22:08:43.970Z,24.77
2018-06-04T22:11:12.361Z,25.27
2018-06-04T22:13:40.734Z,26.23
2018-06-04T22:16:09.131Z,24.03
2018-06-04T22:18:37.509Z,25.10
2018-06-04T22:21:05.903Z,24.10
2018-06-04T22:23:34.275Z,24.77
2018-06-04T22:26:02.671Z,25.83
2018-06-04T22:28:31.054Z,25.70
2018-06-04T22:30:59.452Z,29.97
2018-06-04T22:33:27.823Z,27.57
2018-06-04T22:35:56.229Z,28.07
2018-06-04T22:38:24.604Z,29.17
2018-06-04T22:40:53.006Z,30.57
2018-06-04T22:43:21.378Z,28.80
2018-06-04T22:45:49.769Z,28.30
2018-06-04T22:48:18.141Z,27.97
2018-06-04T22:50:46.539Z,25.40
2018-06-04T22:53:14.914Z,25.03
2018-06-04T22:55:43.311Z,25.73
2018-06-04T22:58:11.708Z,25.80
2018-06-04T23:00:40.079Z,27.00
2018-06-04T23:03:08.486Z,26.77
2018-06-04T23:05:36.883Z,24.20
2018-06-04T23:08:05.279Z,27.67
2018-06-04T23:10:33.662Z,28.33
2018-06-04T23:13:02.060Z,29.20
2018-06-04T23:15:30.430Z,29.67
2018-06-04T23:17:58.822Z,28.17
2018-06-04T23:20:27.196Z,29.73
2018-06-04T23:22:55.596Z,29.97
2018-06-04T23:25:23.966Z,29.13
2018-06-04T23:27:52.367Z,29.57
2018-06-04T23:30:20.743Z,31.67
2018-06-04T23:32:49.137Z,29.80
2018-06-04T23:35:17.510Z,29.87
2018-06-04T23:37:45.905Z,31.40
2018-06-04T23:40:14.292Z,31.80
2018-06-04T23:42:42.687Z,30.87
2018-06-04T23:45:11.067Z,31.90
2018-06-04T23:47:39.464Z,32.40
2018-06-04T23:50:07.834Z,29.93
2018-06-04T23:52:36.234Z,32.83
2018-06-04T23:55:04.606Z,30.93
2018-06-04T23:57:33.003Z,30.20
